createdAt,value
2022-10-14T00:00:26.025Z,25.00
2022-10-14T00:04:17.822Z,21.70
2022-10-14T00:07:49.831Z,23.48
2022-10-14T00:11:25.484Z,22.87
2022-10-14T00:14:57.202Z,21.40
2022-10-14T00:18:29.082Z,23.27
2022-10-14T00:22:00.732Z,22.40
2022-10-14T00:25:37.636Z,24.30
2022-10-14T00:29:13.569Z,23.50
2022-10-14T00:32:45.387Z,23.35
2022-10-14T00:36:20.160Z,23.23
2022-10-14T00:39:56.874Z,22.73
2022-10-14T00:43:29.483Z,23.70
2022-10-14T00:47:01.525Z,23.02
2022-10-14T00:50:34.718Z,22.23
2022-10-14T00:54:08.015Z,24.50
2022-10-14T00:57:39.724Z,24.73
2022-10-14T01:01:11.956Z,24.85
2022-10-14T01:04:46.933Z,24.15
2022-10-14T01:08:31.246Z,22.50
2022-10-14T01:12:38.637Z,22.43
2022-10-14T01:16:39.405Z,21.05
2022-10-14T01:20:41.619Z,22.10
2022-10-14T01:24:42.649Z,22.47
2022-10-14T01:28:29.238Z,22.17
2022-10-14T01:32:11.073Z,22.17
2022-10-14T01:36:04.187Z,21.80
2022-10-14T01:39:42.625Z,23.13
2022-10-14T01:43:17.539Z,24.83
2022-10-14T01:46:54.178Z,25.08
2022-10-14T01:50:28.849Z,22.75
2022-10-14T01:54:06.312Z,23.53
2022-10-14T01:57:41.510Z,22.93
2022-10-14T02:01:13.348Z,22.05
2022-10-14T02:04:45.172Z,22.27
2022-10-14T02:08:45.105Z,23.07
2022-10-14T02:12:31.952Z,21.73
2022-10-14T02:16:14.959Z,22.08
2022-10-14T02:20:29.727Z,21.40
2022-10-14T02:24:09.778Z,21.20
2022-10-14T02:27:44.104Z,20.57
2022-10-14T02:31:18.707Z,21.88
2022-10-14T02:34:54.677Z,20.90
2022-10-14T02:38:26.746Z,20.70
2022-10-14T02:41:58.522Z,22.93
2022-10-14T02:45:30.379Z,22.85
2022-10-14T02:49:02.203Z,22.80
2022-10-14T02:52:34.123Z,22.47
2022-10-14T02:56:06.326Z,22.63
2022-10-14T02:59:39.682Z,23.55
2022-10-14T03:03:11.649Z,23.55
2022-10-14T03:06:43.532Z,21.93
2022-10-14T03:10:15.675Z,21.50
2022-10-14T03:13:47.505Z,22.20
2022-10-14T03:17:19.160Z,21.67
2022-10-14T03:20:51.315Z,23.23
2022-10-14T03:24:23.237Z,20.73
2022-10-14T03:27:55.203Z,20.98
2022-10-14T03:31:26.842Z,22.15
2022-10-14T03:34:58.697Z,20.10
2022-10-14T03:38:30.420Z,20.47
2022-10-14T03:42:03.213Z,19.42
2022-10-14T03:45:34.897Z,20.45
2022-10-14T03:49:06.748Z,22.47
2022-10-14T03:52:44.849Z,22.00
2022-10-14T03:56:18.453Z,21.08
2022-10-14T03:59:50.328Z,20.67
2022-10-14T04:03:22.171Z,21.13
2022-10-14T04:06:54.730Z,21.00
2022-10-14T04:10:26.824Z,19.25
2022-10-14T04:13:59.508Z,20.00
2022-10-14T04:17:31.389Z,19.83
2022-10-14T04:21:06.052Z,20.30
2022-10-14T04:24:42.766Z,20.33
2022-10-14T04:28:14.500Z,22.10
2022-10-14T04:31:46.440Z,21.33
2022-10-14T04:35:18.142Z,20.90
2022-10-14T04:38:49.970Z,22.40
2022-10-14T04:42:21.855Z,21.35
2022-10-14T04:45:54.533Z,21.67
2022-10-14T04:49:26.224Z,21.73
2022-10-14T04:52:58.156Z,21.65
2022-10-14T04:56:29.829Z,20.92
2022-10-14T05:00:03.725Z,22.90
2022-10-14T05:03:40.182Z,21.50
2022-10-14T05:07:12.355Z,23.85
2022-10-14T05:10:44.310Z,23.65
2022-10-14T05:14:16.338Z,21.80
2022-10-14T05:17:48.422Z,20.47
2022-10-14T05:21:20.352Z,22.77
2022-10-14T05:24:51.980Z,22.85
2022-10-14T05:28:24.069Z,21.47
2022-10-14T05:31:55.762Z,21.43
2022-10-14T05:35:46.730Z,20.40
2022-10-14T05:39:19.534Z,21.33
2022-10-14T05:42:51.352Z,21.00
2022-10-14T05:46:23.090Z,20.67
2022-10-14T05:49:56.652Z,20.88
2022-10-14T05:53:28.732Z,22.15
2022-10-14T05:57:00.544Z,22.33
2022-10-14T06:00:32.269Z,20.67
2022-10-14T06:04:04.911Z,20.27
2022-10-14T06:07:37.162Z,21.80
2022-10-14T06:11:09.283Z,22.67
2022-10-14T06:14:41.219Z,22.87
2022-10-14T06:18:13.165Z,18.88
2022-10-14T06:21:45.013Z,20.17
2022-10-14T06:25:16.858Z,19.70
2022-10-14T06:28:48.708Z,19.47
2022-10-14T06:32:23.331Z,20.83
2022-10-14T06:35:55.539Z,18.33
2022-10-14T06:39:27.823Z,17.60
2022-10-14T06:43:00.795Z,17.40
2022-10-14T06:46:32.674Z,17.42
2022-10-14T06:50:04.938Z,17.83
2022-10-14T06:53:36.888Z,17.07
2022-10-14T06:57:08.605Z,15.53
2022-10-14T07:00:44.289Z,17.95
2022-10-14T07:04:18.819Z,16.30
2022-10-14T07:07:50.856Z,16.50
2022-10-14T07:11:22.781Z,16.00
2022-10-14T07:14:54.840Z,16.15
2022-10-14T07:18:26.693Z,15.45
2022-10-14T07:21:58.529Z,16.25
2022-10-14T07:25:30.265Z,15.67
2022-10-14T07:29:04.720Z,14.95
2022-10-14T07:32:39.463Z,15.65
2022-10-14T07:36:18.468Z,15.18
2022-10-14T07:39:53.445Z,15.63
2022-10-14T07:43:25.472Z,14.30
2022-10-14T07:46:58.821Z,15.05
2022-10-14T07:50:30.655Z,15.00
2022-10-14T07:54:04.656Z,15.30
2022-10-14T07:57:36.695Z,12.10
2022-10-14T08:01:08.515Z,12.93
2022-10-14T08:04:40.433Z,14.07
2022-10-14T08:08:12.321Z,12.73
2022-10-14T08:11:45.698Z,13.40
2022-10-14T08:15:17.743Z,12.82
2022-10-14T08:18:50.678Z,13.57
2022-10-14T08:22:22.684Z,12.68
2022-10-14T08:25:57.853Z,11.27
2022-10-14T08:29:29.944Z,11.68
2022-10-14T08:33:01.998Z,12.60
2022-10-14T08:36:33.783Z,11.57
2022-10-14T08:40:06.600Z,13.03
2022-10-14T08:44:16.117Z,12.17
2022-10-14T08:47:48.733Z,10.45
2022-10-14T08:51:21.616Z,12.02
2022-10-14T08:55:00.967Z,11.15
2022-10-14T08:58:40.043Z,10.20
2022-10-14T09:02:21.798Z,10.77
2022-10-14T09:05:59.830Z,11.15
2022-10-14T09:09:49.923Z,11.23
2022-10-14T09:13:47.237Z,11.00
2022-10-14T09:17:25.079Z,10.20
2022-10-14T09:20:58.993Z,9.55
2022-10-14T09:24:35.990Z,9.85
2022-10-14T09:28:11.640Z,9.85
2022-10-14T09:31:43.549Z,10.40
2022-10-14T09:35:23.639Z,9.00
2022-10-14T09:38:56.322Z,8.93
2022-10-14T09:42:44.183Z,8.15
2022-10-14T09:46:17.773Z,7.88
2022-10-14T09:49:49.912Z,7.33
2022-10-14T09:53:34.130Z,7.80
2022-10-14T09:57:08.185Z,8.23
2022-10-14T10:00:40.616Z,9.05
2022-10-14T10:04:33.282Z,9.05
2022-10-14T10:08:26.733Z,8.43
2022-10-14T10:11:58.578Z,8.15
2022-10-14T10:15:30.776Z,8.80
2022-10-14T10:19:32.327Z,9.27
2022-10-14T10:23:22.837Z,9.90
2022-10-14T10:26:54.580Z,10.90
2022-10-14T10:30:33.444Z,9.63
2022-10-14T10:34:21.829Z,9.95
2022-10-14T10:38:14.792Z,9.30
2022-10-14T10:42:07.171Z,9.37
2022-10-14T10:46:08.373Z,7.65
2022-10-14T10:50:25.140Z,7.95
2022-10-14T10:54:06.439Z,7.38
2022-10-14T10:57:46.051Z,7.50
2022-10-14T11:01:55.734Z,7.28
2022-10-14T11:05:44.956Z,7.20
2022-10-14T11:09:50.788Z,7.03
2022-10-14T11:13:34.580Z,6.87
2022-10-14T11:17:12.033Z,6.68
2022-10-14T11:21:04.113Z,6.03
2022-10-14T11:25:00.884Z,8.02
2022-10-14T11:28:55.256Z,6.70
2022-10-14T11:33:01.532Z,5.97
2022-10-14T11:37:03.238Z,5.57
2022-10-14T11:40:42.217Z,6.97
2022-10-14T11:48:23.232Z,5.90
2022-10-14T11:51:58.365Z,6.97
2022-10-14T11:55:36.050Z,6.95
2022-10-14T11:59:43.340Z,9.00
2022-10-14T12:03:29.821Z,8.00
2022-10-14T12:07:10.269Z,7.97
2022-10-14T12:10:57.748Z,7.55
2022-10-14T12:14:39.997Z,8.93
2022-10-14T12:18:12.335Z,10.20
2022-10-14T12:22:08.993Z,9.40
2022-10-14T12:25:57.106Z,9.63
2022-10-14T12:29:33.729Z,10.13
2022-10-14T12:33:09.235Z,11.18
2022-10-14T12:36:43.478Z,10.15
2022-10-14T12:40:15.385Z,10.40
2022-10-14T12:44:05.658Z,10.70
2022-10-14T12:47:37.803Z,10.30
2022-10-14T12:51:14.656Z,12.18
2022-10-14T12:54:48.697Z,11.70
2022-10-14T12:58:27.771Z,10.17
2022-10-14T13:02:17.221Z,9.82
2022-10-14T13:05:49.042Z,10.90
2022-10-14T13:09:32.210Z,10.65
2022-10-14T13:13:53.409Z,10.73
2022-10-14T13:17:47.073Z,10.10
2022-10-14T13:21:37.167Z,10.15
2022-10-14T13:25:19.609Z,9.85
2022-10-14T13:29:15.108Z,9.68
2022-10-14T13:33:03.723Z,9.93
2022-10-14T13:36:39.923Z,9.15
2022-10-14T13:40:17.869Z,11.20
2022-10-14T13:43:54.578Z,10.77
2022-10-14T13:47:26.511Z,10.67
2022-10-14T13:51:23.932Z,10.33
2022-10-14T13:55:22.128Z,9.93
2022-10-14T13:58:54.199Z,10.07
2022-10-14T14:02:30.126Z,10.77
2022-10-14T14:06:08.875Z,11.17
2022-10-14T14:09:47.853Z,10.55
2022-10-14T14:13:19.809Z,11.15
2022-10-14T14:16:58.195Z,11.00
2022-10-14T14:20:31.143Z,11.87
2022-10-14T14:24:10.842Z,10.32
2022-10-14T14:27:46.337Z,10.23
2022-10-14T14:31:21.426Z,11.27
2022-10-14T14:38:33.257Z,11.35
2022-10-14T14:42:05.079Z,11.20
2022-10-14T14:45:46.582Z,11.18
2022-10-14T14:49:25.464Z,11.73
2022-10-14T14:53:02.978Z,11.70
2022-10-14T14:56:48.102Z,11.15
2022-10-14T15:00:20.378Z,11.95
2022-10-14T15:04:13.843Z,13.27
2022-10-14T15:07:49.800Z,12.98
2022-10-14T15:11:22.882Z,13.10
2022-10-14T15:15:00.211Z,13.90
2022-10-14T15:18:32.247Z,12.77
2022-10-14T15:22:24.086Z,13.15
2022-10-14T15:25:58.813Z,14.82
2022-10-14T15:29:30.677Z,12.95
2022-10-14T15:33:12.257Z,13.27
2022-10-14T15:36:44.373Z,14.07
2022-10-14T15:40:21.608Z,15.10
2022-10-14T15:43:53.626Z,17.33
2022-10-14T15:47:25.531Z,16.73
2022-10-14T15:50:57.647Z,18.35
2022-10-14T15:54:29.417Z,17.00
2022-10-14T15:58:01.857Z,18.92
2022-10-14T16:01:37.196Z,15.47
2022-10-14T16:05:25.169Z,18.52
2022-10-14T16:08:56.831Z,16.63
2022-10-14T16:12:28.739Z,15.98
2022-10-14T16:16:03.452Z,18.20
2022-10-14T16:19:35.388Z,16.33
2022-10-14T16:23:07.434Z,17.73
2022-10-14T16:26:40.057Z,17.77
2022-10-14T16:30:11.874Z,18.70
2022-10-14T16:33:45.791Z,22.50
2022-10-14T16:37:17.757Z,19.73
2022-10-14T16:41:02.840Z,19.75
2022-10-14T16:44:36.473Z,17.98
2022-10-14T16:48:08.974Z,16.90
2022-10-14T16:51:42.897Z,17.02
2022-10-14T16:55:15.093Z,17.23
2022-10-14T16:58:46.747Z,18.65
2022-10-14T17:02:19.230Z,20.33
2022-10-14T17:05:57.752Z,20.58
2022-10-14T17:09:29.895Z,18.65
2022-10-14T17:13:02.129Z,19.10
2022-10-14T17:16:34.117Z,18.23
2022-10-14T17:20:09.370Z,19.13
2022-10-14T17:23:43.432Z,20.98
2022-10-14T17:27:16.057Z,20.55
2022-10-14T17:30:48.053Z,20.67
2022-10-14T17:34:19.794Z,22.45
2022-10-14T17:37:51.679Z,21.95
2022-10-14T17:41:24.953Z,23.90
2022-10-14T17:44:56.758Z,24.03
2022-10-14T17:49:44.927Z,23.95
2022-10-14T17:52:52.495Z,21.98
2022-10-14T17:56:25.278Z,22.53
2022-10-14T17:59:57.267Z,21.83
2022-10-14T18:03:29.046Z,21.75
2022-10-14T18:07:01.307Z,21.67
2022-10-14T18:10:36.468Z,21.23
2022-10-14T18:14:12.026Z,22.13
2022-10-14T18:17:43.810Z,19.88
2022-10-14T18:21:15.588Z,19.70
2022-10-14T18:24:47.440Z,20.38
2022-10-14T18:28:19.290Z,22.37
2022-10-14T18:35:23.865Z,22.90
2022-10-14T18:39:00.769Z,22.77
2022-10-14T18:42:32.512Z,21.93
2022-10-14T18:46:15.082Z,23.02
2022-10-14T18:49:48.341Z,23.48
2022-10-14T18:53:20.120Z,24.23
2022-10-14T18:56:52.841Z,26.43
2022-10-14T19:00:25.043Z,25.95
2022-10-14T19:03:57.180Z,26.42
2022-10-14T19:07:29.029Z,25.35
2022-10-14T19:11:05.708Z,25.43
2022-10-14T19:14:37.624Z,26.42
2022-10-14T19:18:12.744Z,26.58
2022-10-14T19:21:46.391Z,27.13
2022-10-14T19:25:18.879Z,29.07
2022-10-14T19:28:52.135Z,29.15
2022-10-14T19:32:24.080Z,29.20
2022-10-14T19:36:00.094Z,31.03
2022-10-14T19:39:31.777Z,30.40
2022-10-14T19:43:03.734Z,31.10
2022-10-14T19:46:35.349Z,30.70
2022-10-14T19:50:07.930Z,30.57
2022-10-14T19:53:39.723Z,31.10
2022-10-14T19:57:11.482Z,29.02
2022-10-14T20:00:43.325Z,30.23
2022-10-14T20:04:15.166Z,28.43
2022-10-14T20:07:46.989Z,28.33
2022-10-14T20:11:22.392Z,29.05
2022-10-14T20:14:55.062Z,28.08
2022-10-14T20:18:27.963Z,29.17
2022-10-14T20:22:01.578Z,29.27
2022-10-14T20:25:35.759Z,28.85
2022-10-14T20:29:07.615Z,30.15
2022-10-14T20:32:39.726Z,32.97
2022-10-14T20:36:16.938Z,28.93
2022-10-14T20:39:49.507Z,29.83
2022-10-14T20:43:21.317Z,28.92
2022-10-14T20:46:53.207Z,27.77
2022-10-14T20:50:24.914Z,29.93
2022-10-14T20:54:02.614Z,30.48
2022-10-14T20:57:36.081Z,29.27
2022-10-14T21:01:13.620Z,30.33
2022-10-14T21:04:48.055Z,29.93
2022-10-14T21:08:20.152Z,31.02
2022-10-14T21:15:26.835Z,30.83
2022-10-14T21:19:09.710Z,29.03
2022-10-14T21:22:41.539Z,28.20
2022-10-14T21:26:13.276Z,28.98
2022-10-14T21:29:45.135Z,30.83
2022-10-14T21:33:17.077Z,32.13
2022-10-14T21:36:49.011Z,31.63
2022-10-14T21:40:20.655Z,32.00
2022-10-14T21:43:52.663Z,33.27
2022-10-14T21:47:24.434Z,28.53
2022-10-14T21:51:08.387Z,28.88
2022-10-14T21:54:40.580Z,28.63
2022-10-14T21:58:12.580Z,29.55
2022-10-14T22:01:44.409Z,28.50
2022-10-14T22:05:16.174Z,30.08
2022-10-14T22:08:50.717Z,29.33
2022-10-14T22:12:22.496Z,28.45
2022-10-14T22:15:54.682Z,28.60
2022-10-14T22:19:26.667Z,29.48
2022-10-14T22:22:59.594Z,27.98
2022-10-14T22:26:32.188Z,30.13
2022-10-14T22:30:05.372Z,28.17
2022-10-14T22:33:39.111Z,27.00
2022-10-14T22:37:10.907Z,28.92
2022-10-14T22:40:42.721Z,30.67
2022-10-14T22:44:14.333Z,29.17
2022-10-14T22:47:46.199Z,30.25
2022-10-14T22:51:20.116Z,30.50
2022-10-14T22:54:51.995Z,30.17
2022-10-14T22:58:23.673Z,27.93
2022-10-14T23:01:55.523Z,30.65
2022-10-14T23:05:27.201Z,31.25
2022-10-14T23:09:01.957Z,29.40
2022-10-14T23:12:33.838Z,28.60
2022-10-14T23:16:10.591Z,29.63
2022-10-14T23:19:42.351Z,28.55
2022-10-14T23:23:14.229Z,31.10
2022-10-14T23:26:45.838Z,30.52
2022-10-14T23:30:17.706Z,31.15
2022-10-14T23:33:51.451Z,29.92
2022-10-14T23:37:24.620Z,32.83
2022-10-14T23:40:58.930Z,32.80
2022-10-14T23:44:36.022Z,32.90
2022-10-14T23:48:07.692Z,31.87
2022-10-14T23:51:39.625Z,32.43
2022-10-14T23:55:11.799Z,31.15
2022-10-14T23:58:43.781Z,32.50
